createdAt,value
2023-05-23T00:06:01.137Z,85.72
2023-05-23T00:16:44.039Z,86.24
2023-05-23T00:27:24.714Z,85.61
2023-05-23T00:38:07.797Z,85.07
2023-05-23T00:48:48.359Z,86.30
2023-05-23T00:59:30.102Z,85.38
2023-05-23T01:10:11.493Z,85.13
2023-05-23T01:21:06.654Z,86.74
2023-05-23T01:31:52.508Z,85.39
2023-05-23T01:42:33.349Z,85.69
2023-05-23T01:53:17.664Z,86.94
2023-05-23T02:03:58.320Z,87.44
2023-05-23T02:14:39.642Z,86.82
2023-05-23T02:25:20.748Z,85.82
2023-05-23T02:36:02.247Z,86.68
2023-05-23T02:46:42.782Z,86.60
2023-05-23T02:57:23.543Z,87.76
2023-05-23T03:08:05.317Z,86.71
2023-05-23T03:18:45.545Z,87.51
2023-05-23T03:29:26.231Z,88.76
2023-05-23T03:40:07.439Z,90.13
2023-05-23T03:50:48.255Z,88.42
2023-05-23T04:01:28.972Z,89.71
2023-05-23T04:12:10.227Z,89.92
2023-05-23T04:22:51.206Z,90.84
2023-05-23T04:33:31.729Z,90.74
2023-05-23T04:44:14.880Z,90.24
2023-05-23T04:54:55.964Z,91.57
2023-05-23T05:05:37.351Z,91.16
2023-05-23T05:16:18.150Z,92.04
2023-05-23T05:26:58.752Z,91.08
2023-05-23T05:37:39.195Z,91.10
2023-05-23T05:48:19.923Z,90.71
2023-05-23T05:59:00.472Z,90.23
2023-05-23T06:09:40.774Z,89.91
2023-05-23T06:20:21.347Z,89.79
2023-05-23T06:31:01.749Z,88.78
2023-05-23T06:41:43.091Z,88.62
2023-05-23T06:52:23.374Z,89.61
2023-05-23T07:02:45.709Z,88.15
2023-05-23T07:13:05.780Z,89.49
2023-05-23T07:23:26.089Z,88.29
2023-05-23T07:33:46.504Z,89.06
2023-05-23T07:44:09.569Z,88.64
2023-05-23T07:54:50.002Z,89.82
2023-05-23T08:05:30.307Z,89.30
2023-05-23T08:16:11.135Z,90.26
2023-05-23T08:26:35.038Z,89.02
2023-05-23T08:36:55.089Z,89.76
2023-05-23T08:47:17.677Z,89.65
2023-05-23T08:57:39.311Z,88.82
2023-05-23T09:07:59.476Z,87.86
2023-05-23T09:18:19.655Z,87.53
2023-05-23T09:28:42.499Z,86.66
2023-05-23T09:39:08.010Z,86.29
2023-05-23T09:49:28.376Z,85.39
2023-05-23T09:59:58.911Z,83.49
2023-05-23T10:10:19.869Z,81.96
2023-05-23T10:20:47.536Z,78.22
2023-05-23T10:31:08.126Z,78.37
2023-05-23T10:41:41.522Z,78.64
2023-05-23T10:52:03.632Z,76.44
2023-05-23T11:02:29.064Z,78.01
2023-05-23T11:12:49.379Z,77.04
2023-05-23T11:23:09.585Z,73.12
2023-05-23T11:33:30.367Z,74.78
2023-05-23T11:43:52.261Z,73.96
2023-05-23T11:54:12.537Z,73.30
2023-05-23T12:04:53.167Z,68.74
2023-05-23T12:15:34.449Z,67.76
2023-05-23T12:25:56.718Z,66.51
2023-05-23T12:36:23.087Z,64.82
2023-05-23T12:46:43.575Z,64.06
2023-05-23T12:57:24.264Z,64.74
2023-05-23T13:08:05.018Z,61.02
2023-05-23T13:18:45.500Z,59.86
2023-05-23T13:29:25.896Z,63.00
2023-05-23T13:40:07.753Z,58.84
2023-05-23T13:50:48.200Z,59.63
2023-05-23T14:01:29.448Z,59.17
2023-05-23T14:12:10.213Z,59.44
2023-05-23T14:22:51.500Z,55.83
2023-05-23T14:33:32.308Z,56.06
2023-05-23T14:44:12.854Z,59.62
2023-05-23T14:54:53.821Z,59.18
2023-05-23T15:05:34.238Z,55.74
2023-05-23T15:16:16.057Z,58.79
2023-05-23T15:27:04.906Z,58.11
2023-05-23T15:37:53.381Z,56.55
2023-05-23T15:48:34.145Z,56.40
2023-05-23T15:59:14.484Z,55.58
2023-05-23T16:09:55.105Z,55.43
2023-05-23T16:20:35.536Z,57.43
2023-05-23T16:31:16.789Z,58.11
2023-05-23T16:42:00.322Z,59.88
2023-05-23T16:52:41.571Z,57.26
2023-05-23T17:03:22.161Z,58.09
2023-05-23T17:14:02.579Z,59.11
2023-05-23T17:24:43.041Z,58.87
2023-05-23T17:35:23.422Z,58.68
2023-05-23T17:46:04.163Z,59.56
2023-05-23T17:56:45.217Z,59.78
2023-05-23T18:07:25.830Z,56.73
2023-05-23T18:18:06.689Z,56.75
2023-05-23T18:28:46.951Z,59.66
2023-05-23T18:39:27.144Z,59.06
2023-05-23T18:50:08.029Z,58.15
2023-05-23T19:00:49.345Z,58.81
2023-05-23T19:11:29.855Z,59.89
2023-05-23T19:22:10.853Z,60.16
2023-05-23T19:32:51.370Z,60.99
2023-05-23T19:43:32.086Z,62.09
2023-05-23T19:54:13.555Z,63.69
2023-05-23T20:04:54.238Z,63.50
2023-05-23T20:15:39.802Z,63.66
2023-05-23T20:26:22.299Z,64.48
2023-05-23T20:37:03.562Z,65.38
2023-05-23T20:47:44.211Z,66.56
2023-05-23T20:58:24.963Z,67.13
2023-05-23T21:09:06.046Z,66.93
2023-05-23T21:19:46.727Z,67.77
2023-05-23T21:30:27.339Z,68.02
2023-05-23T21:41:07.886Z,68.49
2023-05-23T21:51:48.084Z,70.09
2023-05-23T22:02:28.683Z,70.40
2023-05-23T22:13:09.642Z,70.53
2023-05-23T22:23:50.104Z,72.33
2023-05-23T22:34:30.961Z,72.83
2023-05-23T22:45:11.727Z,74.71
2023-05-23T22:55:52.264Z,74.09
2023-05-23T23:06:33.920Z,73.66
2023-05-23T23:17:14.771Z,74.91
2023-05-23T23:27:55.828Z,76.82
2023-05-23T23:38:37.616Z,75.21
2023-05-23T23:49:19.419Z,76.96
2023-05-23T23:59:59.872Z,78.55
